Clarkson Valley, Missouri
Current Conditions -  °F | °C
As of 8:54 AM on Friday 19 Dec 2014 (Local Time) from KSUS Reporting Station
Haze Haze  
Wind Chill: 26°   Ceiling: 1500
Heat Index: 33°   Visibility: 6mi
Dew Point: 28°   Wind: 8mph
Humidity: 82%   Direction: 80°E
Pressure: 30.3"   Gusts: NA
Location:  38.6517°N, 90.5361°W
Report Text: KSUS 191454Z 08007KT 6SM HZ BKN015 OVC028 01/M02 A3030 RMK AO2 SLP270 T00061022 51012
Loading
Personal Weather Stations






























Interactive Weather Map New forecast layout! Learn more

10-Day Weather Forecast

Advertisements
Track Severe Weather on mobile